Time,TemperatureF,DewpointF,PressureIn,WindDirection,WindDirectionDegrees,WindSpeedMPH,WindSpeedGustMPH,Humidity,HourlyPrecipIn,Conditions,Clouds,dailyrainin,SolarRadiationWatts/m^2,SoftwareType,DateUTC
2013-02-13 00:01:00,58.0,48.0,-100.00,North,11,16.0,27.0,70,0.00,,,0.00,0.000000,,2013-02-13 10:01:00,
2013-02-13 00:32:00,58.0,48.0,-100.00,North,11,16.0,27.0,70,0.00,,,0.00,0.000000,,2013-02-13 10:32:00,
2013-02-13 00:42:00,58.0,48.0,-100.00,North,11,16.0,27.0,70,0.00,,,0.00,0.000000,,2013-02-13 10:42:00,
2013-02-13 00:52:00,58.0,48.0,-100.00,North,11,16.0,27.0,70,0.00,,,0.00,0.000000,,2013-02-13 10:52:00,
2013-02-13 01:01:00,57.0,48.0,-100.00,NNE,17,17.0,24.0,72,0.00,,,0.00,0.000000,,2013-02-13 11:01:00,
2013-02-13 01:32:00,57.0,48.0,-100.00,NNE,17,17.0,24.0,72,0.00,,,0.00,0.000000,,2013-02-13 11:32:00,
2013-02-13 01:42:00,57.0,48.0,-100.00,NNE,17,17.0,24.0,72,0.00,,,0.00,0.000000,,2013-02-13 11:42:00,
2013-02-13 01:52:00,57.0,48.0,-100.00,NNE,17,17.0,24.0,72,0.00,,,0.00,0.000000,,2013-02-13 11:52:00,
2013-02-13 02:01:00,57.0,49.0,-100.00,NNE,19,16.0,25.0,74,0.00,,,0.00,0.000000,,2013-02-13 12:01:00,
2013-02-13 02:32:00,57.0,49.0,-100.00,NNE,19,16.0,25.0,74,0.00,,,0.00,0.000000,,2013-02-13 12:32:00,
2013-02-13 02:42:00,57.0,49.0,-100.00,NNE,19,16.0,25.0,74,0.00,,,0.00,0.000000,,2013-02-13 12:42:00,
2013-02-13 02:52:00,57.0,49.0,-100.00,NNE,19,16.0,25.0,74,0.00,,,0.00,0.000000,,2013-02-13 12:52:00,
2013-02-13 03:01:00,56.0,46.0,-100.00,NNE,15,17.0,26.0,70,0.00,,,0.00,0.000000,,2013-02-13 13:01:00,
2013-02-13 03:32:00,56.0,46.0,-100.00,NNE,15,17.0,26.0,70,0.00,,,0.00,0.000000,,2013-02-13 13:32:00,
2013-02-13 03:42:00,56.0,46.0,-100.00,NNE,15,17.0,26.0,70,0.00,,,0.00,0.000000,,2013-02-13 13:42:00,
2013-02-13 03:52:00,56.0,46.0,-100.00,NNE,15,17.0,26.0,70,0.00,,,0.00,0.000000,,2013-02-13 13:52:00,
2013-02-13 04:01:00,56.0,46.0,-100.00,North,11,14.0,24.0,70,0.00,,,0.00,0.000000,,2013-02-13 14:01:00,
2013-02-13 04:22:00,56.0,46.0,-100.00,North,11,14.0,24.0,70,0.00,,,0.00,0.000000,,2013-02-13 14:22:00,
2013-02-13 04:32:00,56.0,46.0,-100.00,North,11,14.0,24.0,70,0.00,,,0.00,0.000000,,2013-02-13 14:32:00,
2013-02-13 04:42:00,56.0,46.0,-100.00,North,11,14.0,24.0,70,0.00,,,0.00,0.000000,,2013-02-13 14:42:00,
2013-02-13 04:52:00,56.0,46.0,-100.00,North,11,14.0,24.0,70,0.00,,,0.00,0.000000,,2013-02-13 14:52:00,
2013-02-13 05:01:00,55.0,45.0,-100.00,North,9,15.0,25.0,70,0.00,,,0.00,0.000000,,2013-02-13 15:01:00,
2013-02-13 05:32:00,55.0,45.0,-100.00,North,9,15.0,25.0,70,0.00,,,0.00,0.000000,,2013-02-13 15:32:00,
2013-02-13 05:42:00,55.0,45.0,-100.00,North,9,15.0,25.0,70,0.00,,,0.00,0.000000,,2013-02-13 15:42:00,
2013-02-13 05:52:00,55.0,45.0,-100.00,North,9,15.0,25.0,70,0.00,,,0.00,0.000000,,2013-02-13 15:52:00,
2013-02-13 06:01:00,55.0,46.0,-100.00,North,9,16.0,24.0,72,0.00,,,0.00,0.000000,,2013-02-13 16:01:00,
2013-02-13 06:32:00,55.0,46.0,-100.00,North,9,16.0,24.0,72,0.00,,,0.00,0.000000,,2013-02-13 16:32:00,
2013-02-13 06:42:00,55.0,46.0,-100.00,North,9,16.0,24.0,72,0.00,,,0.00,0.000000,,2013-02-13 16:42:00,
2013-02-13 06:52:00,55.0,46.0,-100.00,North,9,16.0,24.0,72,0.00,,,0.00,0.000000,,2013-02-13 16:52:00,
2013-02-13 07:01:00,55.0,47.0,-100.00,North,1,15.0,23.0,75,0.00,,,0.00,2.000000,,2013-02-13 17:01:00,
2013-02-13 07:32:00,55.0,47.0,-100.00,North,1,15.0,23.0,75,0.00,,,0.00,2.000000,,2013-02-13 17:32:00,
2013-02-13 07:42:00,55.0,47.0,-100.00,North,1,15.0,23.0,75,0.00,,,0.00,2.000000,,2013-02-13 17:42:00,
2013-02-13 07:52:00,55.0,47.0,-100.00,North,1,15.0,23.0,75,0.00,,,0.00,2.000000,,2013-02-13 17:52:00,
2013-02-13 08:01:00,58.0,46.0,-100.00,North,7,17.0,28.0,65,0.00,,,0.00,108.000000,,2013-02-13 18:01:00,
2013-02-13 08:32:00,58.0,46.0,-100.00,North,7,17.0,28.0,65,0.00,,,0.00,108.000000,,2013-02-13 18:32:00,
2013-02-13 08:42:00,58.0,46.0,-100.00,North,7,17.0,28.0,65,0.00,,,0.00,108.000000,,2013-02-13 18:42:00,
2013-02-13 08:52:00,58.0,46.0,-100.00,North,7,17.0,28.0,65,0.00,,,0.00,108.000000,,2013-02-13 18:52:00,
2013-02-13 09:01:00,62.0,47.0,-100.00,North,10,17.0,30.0,58,0.00,,,0.00,339.000000,,2013-02-13 19:01:00,
2013-02-13 09:32:00,62.0,47.0,-100.00,North,10,17.0,30.0,58,0.00,,,0.00,339.000000,,2013-02-13 19:32:00,
2013-02-13 09:42:00,62.0,47.0,-100.00,North,10,17.0,30.0,58,0.00,,,0.00,339.000000,,2013-02-13 19:42:00,
2013-02-13 09:52:00,62.0,47.0,-100.00,North,10,17.0,30.0,58,0.00,,,0.00,339.000000,,2013-02-13 19:52:00,
2013-02-13 10:01:00,64.0,47.0,-100.00,NNE,23,19.0,26.0,53,0.00,,,-99.99,559.000000,,2013-02-13 20:01:00,
2013-02-13 10:22:00,64.0,47.0,-100.00,NNE,23,19.0,26.0,53,0.00,,,-99.99,559.000000,,2013-02-13 20:22:00,
2013-02-13 10:32:00,64.0,47.0,-100.00,NNE,23,19.0,26.0,53,0.00,,,-99.99,559.000000,,2013-02-13 20:32:00,
2013-02-13 10:42:00,64.0,47.0,-100.00,NNE,23,19.0,26.0,53,0.00,,,-99.99,559.000000,,2013-02-13 20:42:00,
2013-02-13 10:52:00,64.0,47.0,-100.00,NNE,23,19.0,26.0,53,0.00,,,-99.99,559.000000,,2013-02-13 20:52:00,
2013-02-13 11:01:00,67.0,46.0,-100.00,NE,35,14.0,24.0,46,0.00,,,0.00,739.000000,,2013-02-13 21:01:00,
2013-02-13 11:32:00,67.0,46.0,-100.00,NE,35,14.0,24.0,46,0.00,,,0.00,739.000000,,2013-02-13 21:32:00,
2013-02-13 11:42:00,67.0,46.0,-100.00,NE,35,14.0,24.0,46,0.00,,,0.00,739.000000,,2013-02-13 21:42:00,
2013-02-13 11:52:00,67.0,46.0,-100.00,NE,35,14.0,24.0,46,0.00,,,0.00,739.000000,,2013-02-13 21:52:00,
2013-02-13 12:01:00,71.0,47.0,-100.00,NNE,16,10.0,23.0,42,0.00,,,0.00,859.000000,,2013-02-13 22:01:00,
2013-02-13 12:32:00,71.0,47.0,-100.00,NNE,16,10.0,23.0,42,0.00,,,0.00,859.000000,,2013-02-13 22:32:00,
2013-02-13 12:42:00,71.0,47.0,-100.00,NNE,16,10.0,23.0,42,0.00,,,0.00,859.000000,,2013-02-13 22:42:00,
2013-02-13 12:52:00,71.0,47.0,-100.00,NNE,16,10.0,23.0,42,0.00,,,0.00,859.000000,,2013-02-13 22:52:00,
2013-02-13 13:01:00,71.0,47.0,-100.00,WNW,292,9.0,19.0,42,0.00,,,0.00,905.000000,,2013-02-13 23:01:00,
2013-02-13 13:32:00,71.0,47.0,-100.00,WNW,292,9.0,19.0,42,0.00,,,0.00,905.000000,,2013-02-13 23:32:00,
2013-02-13 13:42:00,71.0,47.0,-100.00,WNW,292,9.0,19.0,42,0.00,,,0.00,905.000000,,2013-02-13 23:42:00,
2013-02-13 13:52:00,71.0,47.0,-100.00,WNW,292,9.0,19.0,42,0.00,,,0.00,905.000000,,2013-02-13 23:52:00,
2013-02-13 14:01:00,69.0,48.0,-100.00,NW,315,6.0,20.0,47,0.00,,,0.00,744.000000,,2013-02-14 00:01:00,
2013-02-13 14:32:00,69.0,48.0,-100.00,NW,315,6.0,20.0,47,0.00,,,0.00,744.000000,,2013-02-14 00:32:00,
2013-02-13 14:42:00,69.0,48.0,-100.00,NW,315,6.0,20.0,47,0.00,,,0.00,744.000000,,2013-02-14 00:42:00,
2013-02-13 14:52:00,69.0,48.0,-100.00,NW,315,6.0,20.0,47,0.00,,,0.00,744.000000,,2013-02-14 00:52:00,
2013-02-13 15:01:00,68.0,47.0,-100.00,NNW,346,13.0,26.0,47,0.00,,,0.00,371.000000,,2013-02-14 01:01:00,
2013-02-13 15:32:00,68.0,47.0,-100.00,NNW,346,13.0,26.0,47,0.00,,,0.00,371.000000,,2013-02-14 01:32:00,
2013-02-13 15:42:00,68.0,47.0,-100.00,NNW,346,13.0,26.0,47,0.00,,,0.00,371.000000,,2013-02-14 01:42:00,
2013-02-13 15:51:00,68.0,47.0,-100.00,NNW,346,13.0,26.0,47,0.00,,,0.00,371.000000,,2013-02-14 01:51:00,
2013-02-13 16:01:00,65.0,47.0,-100.00,NNE,17,14.0,23.0,52,0.00,,,0.00,253.000000,,2013-02-14 02:01:00,
2013-02-13 16:21:00,65.0,47.0,-100.00,NNE,17,14.0,23.0,52,0.00,,,0.00,253.000000,,2013-02-14 02:21:00,
2013-02-13 16:32:00,65.0,47.0,-100.00,NNE,17,14.0,23.0,52,0.00,,,0.00,253.000000,,2013-02-14 02:32:00,
2013-02-13 16:42:00,65.0,47.0,-100.00,NNE,17,14.0,23.0,52,0.00,,,0.00,253.000000,,2013-02-14 02:42:00,
2013-02-13 16:51:00,65.0,47.0,-100.00,NNE,17,14.0,23.0,52,0.00,,,0.00,253.000000,,2013-02-14 02:51:00,
2013-02-13 17:01:00,65.0,47.0,-100.00,NNE,30,13.0,21.0,53,0.00,,,0.00,173.000000,,2013-02-14 03:01:00,
2013-02-13 17:22:00,65.0,47.0,-100.00,NNE,30,13.0,21.0,53,0.00,,,0.00,173.000000,,2013-02-14 03:22:00,
2013-02-13 17:32:00,65.0,47.0,-100.00,NNE,30,13.0,21.0,53,0.00,,,0.00,173.000000,,2013-02-14 03:32:00,
2013-02-13 17:42:00,65.0,47.0,-100.00,NNE,30,13.0,21.0,53,0.00,,,0.00,173.000000,,2013-02-14 03:42:00,
2013-02-13 17:52:00,65.0,47.0,-100.00,NNE,30,13.0,21.0,53,0.00,,,0.00,173.000000,,2013-02-14 03:52:00,
2013-02-13 18:01:00,60.0,49.0,-100.00,NNE,23,15.0,22.0,66,0.00,,,0.00,156.000000,,2013-02-14 04:01:00,
2013-02-13 18:32:00,60.0,49.0,-100.00,NNE,23,15.0,22.0,66,0.00,,,0.00,156.000000,,2013-02-14 04:32:00,
2013-02-13 18:42:00,60.0,49.0,-100.00,NNE,23,15.0,22.0,66,0.00,,,0.00,156.000000,,2013-02-14 04:42:00,
2013-02-13 18:51:00,60.0,49.0,-100.00,NNE,23,15.0,22.0,66,0.00,,,0.00,156.000000,,2013-02-14 04:51:00,
2013-02-13 19:01:00,57.0,48.0,-100.00,NNE,22,12.0,21.0,71,0.00,,,0.00,5.000000,,2013-02-14 05:01:00,
2013-02-13 19:22:00,57.0,48.0,-100.00,NNE,22,12.0,21.0,71,0.00,,,0.00,5.000000,,2013-02-14 05:22:00,
2013-02-13 19:32:00,57.0,48.0,-100.00,NNE,22,12.0,21.0,71,0.00,,,0.00,5.000000,,2013-02-14 05:32:00,
2013-02-13 19:42:00,57.0,48.0,-100.00,NNE,22,12.0,21.0,71,0.00,,,0.00,5.000000,,2013-02-14 05:42:00,
2013-02-13 19:52:00,57.0,48.0,-100.00,NNE,22,12.0,21.0,71,0.00,,,0.00,5.000000,,2013-02-14 05:52:00,
2013-02-13 20:01:00,56.0,47.0,-100.00,NNE,15,15.0,20.0,71,0.00,,,0.00,0.000000,,2013-02-14 06:01:00,
2013-02-13 20:22:00,56.0,47.0,-100.00,NNE,15,15.0,20.0,71,0.00,,,0.00,0.000000,,2013-02-14 06:22:00,
2013-02-13 20:32:00,56.0,47.0,-100.00,NNE,15,15.0,20.0,71,0.00,,,0.00,0.000000,,2013-02-14 06:32:00,
2013-02-13 20:42:00,56.0,47.0,-100.00,NNE,15,15.0,20.0,71,0.00,,,0.00,0.000000,,2013-02-14 06:42:00,
2013-02-13 20:52:00,56.0,47.0,-100.00,NNE,15,15.0,20.0,71,0.00,,,0.00,0.000000,,2013-02-14 06:52:00,
2013-02-13 21:01:00,55.0,47.0,-100.00,North,10,13.0,20.0,74,0.00,,,0.00,0.000000,,2013-02-14 07:01:00,
2013-02-13 21:32:00,55.0,47.0,-100.00,North,10,13.0,20.0,74,0.00,,,0.00,0.000000,,2013-02-14 07:32:00,
2013-02-13 21:42:00,55.0,47.0,-100.00,North,10,13.0,20.0,74,0.00,,,0.00,0.000000,,2013-02-14 07:42:00,
2013-02-13 21:52:00,55.0,47.0,-100.00,North,10,13.0,20.0,74,0.00,,,0.00,0.000000,,2013-02-14 07:52:00,
2013-02-13 22:01:00,56.0,47.0,-100.00,North,358,12.0,21.0,72,0.00,,,0.00,0.000000,,2013-02-14 08:01:00,
2013-02-13 22:32:00,56.0,47.0,-100.00,North,358,12.0,21.0,72,0.00,,,0.00,0.000000,,2013-02-14 08:32:00,
2013-02-13 22:43:00,56.0,47.0,-100.00,North,358,12.0,21.0,72,0.00,,,0.00,0.000000,,2013-02-14 08:43:00,
2013-02-13 22:52:00,56.0,47.0,-100.00,North,358,12.0,21.0,72,0.00,,,0.00,0.000000,,2013-02-14 08:52:00,
2013-02-13 23:01:00,55.0,49.0,-100.00,NNE,18,10.0,17.0,79,0.00,,,0.00,0.000000,,2013-02-14 09:01:00,
2013-02-13 23:32:00,55.0,49.0,-100.00,NNE,18,10.0,17.0,79,0.00,,,0.00,0.000000,,2013-02-14 09:32:00,
2013-02-13 23:42:00,55.0,49.0,-100.00,NNE,18,10.0,17.0,79,0.00,,,0.00,0.000000,,2013-02-14 09:42:00,
2013-02-13 23:52:00,55.0,49.0,-100.00,NNE,18,10.0,17.0,79,0.00,,,0.00,0.000000,,2013-02-14 09:52:00,